Time;durP1;ratioP1;P1;durP2;ratioP2;P2;SDS_P1;SDS_P2;PMS_P1;PMS_P2;Temp;Humidity;BMP_temperature;BMP_pressure;BME280_temperature;BME280_humidity;BME280_pressure;Samples;Min_cycle;Max_cycle;Signal;HPM_P1;HPM_P2
2022/07/28 00:02:03;;;;;;;2.25;0.70;;;15.00;92.30;;;;;;5013750;28;20491;-38
2022/07/28 00:04:29;;;;;;;2.35;0.70;;;15.00;92.40;;;;;;5013877;28;20084;-38
2022/07/28 00:06:55;;;;;;;2.00;0.50;;;14.90;92.50;;;;;;5000777;28;20054;-38
2022/07/28 00:09:20;;;;;;;1.75;0.60;;;14.90;92.40;;;;;;5013887;28;20574;-38
2022/07/28 00:11:46;;;;;;;2.28;0.70;;;14.90;92.50;;;;;;5013404;28;20042;-38
2022/07/28 00:14:12;;;;;;;1.73;0.63;;;14.80;92.60;;;;;;5013577;28;20045;-38
2022/07/28 00:16:37;;;;;;;3.60;0.73;;;14.80;92.60;;;;;;5013191;28;20406;-37
2022/07/28 00:19:03;;;;;;;2.17;0.60;;;14.80;92.90;;;;;;5013212;28;20111;-37
2022/07/28 00:21:29;;;;;;;1.63;0.70;;;14.80;93.50;;;;;;5013035;28;20041;-37
2022/07/28 00:23:54;;;;;;;3.30;0.60;;;14.70;93.40;;;;;;5011831;28;20038;-38
2022/07/28 00:26:20;;;;;;;3.33;0.63;;;14.70;93.60;;;;;;5011579;28;20372;-38
2022/07/28 00:28:47;;;;;;;5.38;0.65;;;14.70;93.80;;;;;;5013271;28;20038;-38
2022/07/28 00:31:12;;;;;;;2.53;0.70;;;14.70;93.80;;;;;;5013388;28;20046;-38
2022/07/28 00:33:38;;;;;;;2.67;0.90;;;14.60;93.90;;;;;;5013455;28;20050;-38
2022/07/28 00:36:06;;;;;;;3.15;0.80;;;14.60;94.20;;;;;;5012713;28;20045;-38
2022/07/28 00:38:32;;;;;;;3.28;0.80;;;14.50;94.50;;;;;;5009158;28;20042;-38
2022/07/28 00:41:09;;;;;;;2.50;0.88;;;14.50;94.60;;;;;;5004462;28;20500;-37
2022/07/28 00:43:36;;;;;;;4.10;1.20;;;14.50;94.70;;;;;;5012852;28;20048;-38
2022/07/28 00:46:02;;;;;;;1.67;0.75;;;14.40;94.80;;;;;;5012920;28;20121;-38
2022/07/28 00:48:28;;;;;;;1.83;0.50;;;14.40;94.80;;;;;;5012671;28;20048;-37
2022/07/28 00:50:54;;;;;;;2.10;0.60;;;14.40;94.80;;;;;;5012765;28;20045;-38
2022/07/28 00:53:20;;;;;;;2.72;0.40;;;14.40;95.10;;;;;;5012727;28;20037;-38
2022/07/28 00:55:46;;;;;;;1.75;0.55;;;14.30;95.20;;;;;;5010786;28;20042;-38
2022/07/28 00:58:12;;;;;;;1.65;0.60;;;14.30;95.40;;;;;;5011971;28;20407;-38
2022/07/28 01:00:37;;;;;;;1.65;0.50;;;14.20;95.30;;;;;;5012625;28;20053;-38
2022/07/28 01:03:05;;;;;;;3.03;0.60;;;14.20;95.50;;;;;;5012638;28;20452;-37
2022/07/28 01:05:59;;;;;;;1.75;0.77;;;14.20;95.60;;;;;;5012634;28;20511;-38
2022/07/28 01:08:51;;;;;;;2.45;0.57;;;14.20;96.10;;;;;;5012600;28;20065;-38
2022/07/28 01:11:31;;;;;;;1.63;0.52;;;14.20;96.40;;;;;;5011151;28;20038;-38
2022/07/28 01:14:27;;;;;;;2.55;0.40;;;14.20;95.70;;;;;;5001041;28;20073;-38
2022/07/28 01:17:00;;;;;;;1.98;0.40;;;14.20;96.30;;;;;;5011438;28;20057;-38
2022/07/28 01:19:38;;;;;;;2.33;0.52;;;14.20;95.90;;;;;;5012360;28;20100;-37
2022/07/28 01:22:08;;;;;;;2.92;0.50;;;14.20;96.30;;;;;;5011870;28;20058;-38
2022/07/28 01:24:39;;;;;;;2.28;0.60;;;14.10;95.90;;;;;;5012130;28;20141;-38
2022/07/28 01:27:09;;;;;;;2.77;0.60;;;14.10;95.90;;;;;;5010724;28;20034;-38
2022/07/28 01:29:57;;;;;;;1.80;0.43;;;14.10;96.10;;;;;;5007506;28;20108;-40
2022/07/28 01:32:30;;;;;;;1.25;0.50;;;14.10;96.20;;;;;;5011977;28;20049;-37
2022/07/28 01:35:04;;;;;;;;;;;14.10;96.00;;;;;;5007090;28;20069;-38
2022/07/28 01:37:31;;;;;;;2.08;0.73;;;14.10;97.50;;;;;;5011748;28;19917;-38
2022/07/28 01:40:01;;;;;;;3.75;0.50;;;14.10;95.90;;;;;;5011858;28;20120;-40
2022/07/28 01:42:35;;;;;;;1.88;0.40;;;14.10;95.90;;;;;;5010555;28;20042;-38
2022/07/28 01:45:03;;;;;;;2.53;0.47;;;14.10;96.20;;;;;;5008397;28;20085;-40
2022/07/28 01:47:30;;;;;;;2.58;0.80;;;14.10;96.00;;;;;;5011954;28;20119;-37
2022/07/28 01:50:02;;;;;;;4.47;0.98;;;14.10;96.00;;;;;;5011774;28;20053;-38
2022/07/28 01:52:30;;;;;;;4.53;0.80;;;14.10;95.80;;;;;;5003346;28;20173;-38
2022/07/28 01:54:58;;;;;;;3.30;0.82;;;14.10;95.90;;;;;;5011806;28;20058;-38
2022/07/28 01:57:25;;;;;;;5.32;0.85;;;14.10;95.80;;;;;;5011144;28;20046;-37
2022/07/28 01:59:53;;;;;;;3.08;0.70;;;14.10;95.80;;;;;;5011896;28;20037;-38
2022/07/28 02:02:20;;;;;;;2.60;1.00;;;14.10;95.80;;;;;;5008378;28;20576;-38
2022/07/28 02:04:49;;;;;;;1.42;0.65;;;14.10;96.00;;;;;;5010194;28;20053;-38
2022/07/28 02:07:16;;;;;;;2.28;0.80;;;14.10;96.10;;;;;;5010938;28;20057;-38
2022/07/28 02:09:44;;;;;;;2.95;0.70;;;14.00;96.20;;;;;;5011585;28;20049;-40
2022/07/28 02:12:13;;;;;;;6.53;1.25;;;14.00;96.30;;;;;;5011107;28;20104;-38
2022/07/28 02:14:41;;;;;;;2.20;0.73;;;13.90;96.40;;;;;;5011387;28;20050;-38
2022/07/28 02:17:13;;;;;;;3.63;0.85;;;13.90;96.50;;;;;;5011213;28;20050;-38
2022/07/28 02:19:41;;;;;;;2.03;0.73;;;13.90;96.70;;;;;;4992824;28;20073;-37
2022/07/28 02:22:08;;;;;;;3.88;1.00;;;13.90;96.60;;;;;;4994956;28;20046;-38
2022/07/28 02:24:35;;;;;;;2.47;1.10;;;13.90;96.90;;;;;;5011317;28;20443;-38
2022/07/28 02:27:13;;;;;;;3.70;0.90;;;13.70;96.90;;;;;;5010734;28;20073;-38
2022/07/28 02:29:51;;;;;;;2.63;0.80;;;13.70;97.50;;;;;;5010980;28;20120;-38
2022/07/28 02:32:31;;;;;;;2.20;0.75;;;13.60;97.40;;;;;;5010863;28;20077;-39
2022/07/28 02:35:07;;;;;;;3.45;0.90;;;13.60;97.50;;;;;;5003335;28;20057;-38
2022/07/28 02:37:37;;;;;;;3.10;0.95;;;13.60;97.60;;;;;;5000382;28;20045;-38
2022/07/28 02:40:04;;;;;;;2.50;0.80;;;13.60;97.50;;;;;;4998440;28;20121;-38
2022/07/28 02:42:33;;;;;;;2.28;0.80;;;13.60;97.60;;;;;;5010688;28;20525;-38
2022/07/28 02:45:02;;;;;;;1.85;0.60;;;13.50;97.90;;;;;;5009496;28;20465;-37
2022/07/28 02:47:31;;;;;;;1.45;0.70;;;13.50;97.80;;;;;;5010594;28;20105;-38
2022/07/28 02:50:00;;;;;;;1.90;0.70;;;13.50;98.10;;;;;;5010707;28;20038;-35
2022/07/28 02:52:27;;;;;;;3.47;0.88;;;13.50;98.50;;;;;;5008373;28;20351;-38
2022/07/28 02:54:57;;;;;;;1.40;0.68;;;13.40;98.20;;;;;;5010621;28;20121;-38
2022/07/28 02:57:24;;;;;;;4.35;0.85;;;13.40;98.20;;;;;;5009964;28;20125;-38
2022/07/28 02:59:52;;;;;;;2.25;0.75;;;13.40;98.50;;;;;;5010524;28;20454;-38
2022/07/28 03:02:21;;;;;;;1.85;0.95;;;13.30;98.50;;;;;;5005326;28;20479;-38
2022/07/28 03:04:57;;;;;;;1.90;0.70;;;13.30;98.60;;;;;;5010626;28;20072;-38
2022/07/28 03:07:31;;;;;;;2.08;0.73;;;13.30;98.80;;;;;;5010092;28;20034;-37
2022/07/28 03:09:58;;;;;;;2.30;0.70;;;13.30;98.90;;;;;;5008642;28;20046;-38
2022/07/28 03:12:25;;;;;;;2.45;1.00;;;13.30;98.80;;;;;;5010071;28;20041;-38
2022/07/28 03:14:51;;;;;;;4.88;0.70;;;13.30;99.00;;;;;;4999950;28;20045;-38
2022/07/28 03:17:18;;;;;;;2.80;1.00;;;13.20;99.00;;;;;;5009774;28;20064;-38
2022/07/28 03:19:44;;;;;;;2.15;0.90;;;13.20;99.00;;;;;;5010323;28;20066;-38
2022/07/28 03:22:10;;;;;;;3.00;0.98;;;13.20;99.00;;;;;;5007686;28;20050;-38
2022/07/28 03:24:39;;;;;;;2.40;0.70;;;13.10;99.20;;;;;;5005410;28;20050;-39
2022/07/28 03:27:25;;;;;;;2.97;0.70;;;13.10;99.30;;;;;;5005878;28;20056;-37
2022/07/28 03:30:28;;;;;;;2.47;1.15;;;13.10;99.70;;;;;;5002624;28;20400;-37
2022/07/28 03:32:55;;;;;;;;;;;13.00;99.70;;;;;;5002563;28;20167;-38
2022/07/28 03:35:22;;;;;;;3.15;0.70;;;13.00;99.90;;;;;;5008618;28;19918;-38
2022/07/28 03:38:01;;;;;;;2.55;0.85;;;13.00;99.50;;;;;;5009866;28;20044;-38
2022/07/28 03:40:30;;;;;;;3.55;1.27;;;13.00;99.60;;;;;;5005416;28;20038;-38
2022/07/28 03:42:58;;;;;;;3.97;1.35;;;13.00;99.50;;;;;;5003320;28;20041;-38
2022/07/28 03:45:24;;;;;;;3.30;1.60;;;13.00;99.40;;;;;;5009956;28;20042;-37
2022/07/28 03:47:55;;;;;;;5.40;1.77;;;13.00;99.80;;;;;;5009800;28;20042;-38
2022/07/28 03:50:29;;;;;;;2.65;1.17;;;12.90;99.90;;;;;;5008700;28;20045;-38
2022/07/28 03:52:56;;;;;;;2.70;1.30;;;12.90;99.90;;;;;;5005843;28;20760;-37
2022/07/28 03:55:23;;;;;;;2.47;1.05;;;12.80;99.90;;;;;;5007640;28;20042;-37
2022/07/28 03:57:48;;;;;;;3.83;1.60;;;12.80;99.90;;;;;;5009416;28;20049;-38
2022/07/28 04:00:15;;;;;;;3.15;1.50;;;12.70;99.90;;;;;;5009871;28;20046;-38
2022/07/28 04:02:42;;;;;;;3.03;1.65;;;12.70;99.90;;;;;;5008310;28;20050;-38
2022/07/28 04:05:18;;;;;;;4.10;1.73;;;12.70;99.90;;;;;;5010040;28;20116;-40
2022/07/28 04:07:44;;;;;;;4.18;2.05;;;12.70;99.90;;;;;;5006438;28;20041;-38
2022/07/28 04:10:12;;;;;;;4.10;2.40;;;12.70;99.90;;;;;;5009703;28;20045;-38
2022/07/28 04:12:48;;;;;;;3.90;2.05;;;12.70;99.90;;;;;;4999783;28;20042;-38
2022/07/28 04:15:14;;;;;;;3.42;1.83;;;12.80;99.90;;;;;;5009726;28;20046;-38
2022/07/28 04:17:43;;;;;;;3.45;1.90;;;12.80;99.90;;;;;;5009249;28;20136;-38
2022/07/28 04:20:10;;;;;;;2.95;1.55;;;12.70;99.90;;;;;;5008403;28;20113;-38
2022/07/28 04:22:36;;;;;;;2.63;1.27;;;12.70;99.90;;;;;;5009117;28;20096;-38
2022/07/28 04:25:02;;;;;;;2.90;1.58;;;12.70;99.90;;;;;;5009948;28;20353;-38
2022/07/28 04:27:27;;;;;;;2.92;1.20;;;12.70;99.90;;;;;;5005681;28;20475;-38
2022/07/28 04:29:53;;;;;;;3.55;0.95;;;12.70;99.90;;;;;;5001194;28;20034;-38
2022/07/28 04:32:19;;;;;;;5.15;1.20;;;12.70;99.90;;;;;;5004895;28;20059;-38
2022/07/28 04:34:44;;;;;;;2.55;1.10;;;12.70;99.90;;;;;;5008303;28;20041;-38
2022/07/28 04:37:10;;;;;;;2.70;1.25;;;12.80;99.90;;;;;;5008990;28;20116;-38
2022/07/28 04:39:36;;;;;;;3.10;0.90;;;12.80;99.90;;;;;;5002295;28;20042;-39
2022/07/28 04:42:02;;;;;;;4.38;1.00;;;12.80;99.90;;;;;;5008365;28;20618;-38
2022/07/28 04:44:27;;;;;;;3.47;1.30;;;12.90;99.90;;;;;;5001045;28;20034;-38
2022/07/28 04:46:53;;;;;;;2.72;1.25;;;12.90;99.90;;;;;;5008915;28;20518;-38
2022/07/28 04:49:19;;;;;;;3.50;1.20;;;12.90;99.90;;;;;;5004558;28;20034;-38
2022/07/28 04:51:48;;;;;;;3.85;1.00;;;13.00;99.90;;;;;;5011236;28;20506;-40
2022/07/28 04:54:14;;;;;;;2.30;1.13;;;13.10;99.90;;;;;;5013100;28;20084;-38
2022/07/28 04:56:40;;;;;;;2.30;1.00;;;13.20;99.90;;;;;;5011103;28;20042;-37
2022/07/28 04:59:06;;;;;;;2.90;1.30;;;13.40;99.90;;;;;;5012538;28;20038;-38
2022/07/28 05:01:31;;;;;;;4.05;1.20;;;13.50;99.90;;;;;;5009858;28;20053;-37
2022/07/28 05:03:57;;;;;;;3.95;1.10;;;13.50;99.90;;;;;;5009753;28;20481;-37
2022/07/28 05:06:23;;;;;;;3.40;1.00;;;13.70;99.60;;;;;;5012341;28;20125;-38
2022/07/28 05:08:49;;;;;;;6.95;1.38;;;13.80;99.20;;;;;;5011383;28;20037;-37
2022/07/28 05:11:16;;;;;;;4.38;0.90;;;13.90;99.00;;;;;;5010958;28;20049;-38
2022/07/28 05:13:41;;;;;;;4.07;1.10;;;14.00;98.90;;;;;;5012378;28;20042;-44
2022/07/28 05:16:07;;;;;;;3.75;1.30;;;14.10;98.60;;;;;;5011782;28;20163;-37
2022/07/28 05:18:34;;;;;;;2.90;0.82;;;14.20;98.40;;;;;;5000508;28;20186;-38
2022/07/28 05:21:00;;;;;;;2.65;0.80;;;14.30;98.10;;;;;;5011216;28;20038;-37
2022/07/28 05:23:25;;;;;;;3.20;0.65;;;14.50;98.10;;;;;;5012215;28;20099;-37
2022/07/28 05:25:51;;;;;;;2.10;0.60;;;14.60;97.70;;;;;;5012102;28;20030;-37
2022/07/28 05:28:17;;;;;;;2.13;0.80;;;14.70;97.40;;;;;;5011963;28;20034;-38
2022/07/28 05:30:42;;;;;;;2.38;0.68;;;14.80;96.90;;;;;;5012163;28;20510;-40
2022/07/28 05:33:08;;;;;;;1.95;0.75;;;15.00;96.30;;;;;;5008313;28;20569;-37
2022/07/28 05:35:34;;;;;;;3.10;0.80;;;15.10;96.00;;;;;;5005208;28;20049;-39
2022/07/28 05:38:00;;;;;;;2.70;0.50;;;15.20;95.80;;;;;;5011480;28;20030;-37
2022/07/28 05:40:26;;;;;;;2.25;0.70;;;15.40;95.50;;;;;;5010986;28;20121;-37
2022/07/28 05:42:51;;;;;;;4.25;0.60;;;15.40;95.20;;;;;;5011764;28;20112;-38
2022/07/28 05:45:17;;;;;;;1.02;0.40;;;15.50;94.90;;;;;;5011701;28;20390;-37
2022/07/28 05:47:45;;;;;;;3.55;0.57;;;15.50;94.90;;;;;;5010620;28;20478;-38
2022/07/28 05:50:11;;;;;;;2.75;0.73;;;15.50;94.90;;;;;;5011784;28;20070;-36
2022/07/28 05:52:37;;;;;;;2.97;0.82;;;15.50;94.90;;;;;;5003331;28;20052;-39
2022/07/28 05:55:04;;;;;;;3.45;1.10;;;15.50;94.90;;;;;;5011927;28;20038;-37
2022/07/28 05:57:30;;;;;;;2.15;0.68;;;15.50;94.80;;;;;;5003394;28;20057;-37
2022/07/28 05:59:56;;;;;;;4.07;0.93;;;15.50;94.80;;;;;;5011820;28;20046;-37
2022/07/28 06:02:22;;;;;;;6.45;1.25;;;15.50;94.90;;;;;;5011357;28;20398;-38
2022/07/28 06:04:48;;;;;;;2.50;0.85;;;15.50;94.90;;;;;;5011588;28;20054;-38
2022/07/28 06:07:13;;;;;;;3.28;1.15;;;15.50;94.90;;;;;;5009974;28;20041;-39
2022/07/28 06:09:39;;;;;;;2.25;1.05;;;15.50;94.80;;;;;;5010356;28;20048;-39
2022/07/28 06:12:05;;;;;;;2.97;0.65;;;15.50;94.70;;;;;;5011260;28;20048;-37
2022/07/28 06:14:31;;;;;;;2.05;0.68;;;15.50;94.70;;;;;;5011302;28;20041;-39
2022/07/28 06:16:57;;;;;;;3.00;0.70;;;15.50;94.80;;;;;;5011331;28;20128;-37
2022/07/28 06:19:22;;;;;;;2.97;0.80;;;15.50;95.00;;;;;;5011209;28;20116;-37
2022/07/28 06:21:51;;;;;;;2.33;0.60;;;15.50;94.80;;;;;;5011122;28;20070;-37
2022/07/28 06:24:17;;;;;;;2.80;0.70;;;15.50;94.60;;;;;;5010169;28;20124;-37
2022/07/28 06:26:43;;;;;;;1.92;0.50;;;15.50;94.80;;;;;;5004327;28;20117;-37
2022/07/28 06:29:08;;;;;;;3.70;0.70;;;15.50;95.10;;;;;;5006130;28;20141;-38
2022/07/28 06:31:34;;;;;;;1.70;0.73;;;15.50;95.10;;;;;;5011105;28;20045;-37
2022/07/28 06:34:00;;;;;;;2.50;0.60;;;15.60;95.20;;;;;;5011039;28;20064;-38
2022/07/28 06:36:26;;;;;;;3.97;0.70;;;15.60;95.10;;;;;;5006281;28;20093;-36
2022/07/28 06:38:51;;;;;;;5.65;0.90;;;15.60;95.20;;;;;;5010327;28;20486;-37
2022/07/28 06:41:17;;;;;;;2.85;0.57;;;15.70;95.10;;;;;;5010802;28;20034;-39
2022/07/28 06:43:42;;;;;;;2.63;0.73;;;15.80;94.90;;;;;;5001379;28;20080;-38
2022/07/28 06:46:08;;;;;;;1.88;0.77;;;15.80;94.70;;;;;;5010778;28;20068;-39
2022/07/28 06:48:36;;;;;;;3.25;0.90;;;15.80;94.70;;;;;;5010870;28;20041;-40
2022/07/28 06:51:02;;;;;;;2.78;0.70;;;15.80;94.50;;;;;;5009457;28;20648;-37
2022/07/28 06:53:27;;;;;;;4.43;0.60;;;15.90;94.50;;;;;;5010573;28;20183;-37
2022/07/28 06:55:53;;;;;;;4.70;0.80;;;15.90;94.60;;;;;;5010670;28;20037;-37
2022/07/28 06:58:19;;;;;;;1.80;0.68;;;16.10;94.50;;;;;;5010360;28;20045;-39
2022/07/28 07:00:45;;;;;;;4.28;0.65;;;16.20;94.20;;;;;;5002389;28;20498;-37
2022/07/28 07:03:10;;;;;;;4.45;1.25;;;16.30;94.00;;;;;;5010568;28;20036;-39
2022/07/28 07:05:36;;;;;;;1.67;0.85;;;16.40;93.50;;;;;;5010514;28;20422;-37
2022/07/28 07:08:01;;;;;;;3.83;0.70;;;16.40;93.40;;;;;;5010244;28;20034;-37
2022/07/28 07:10:27;;;;;;;6.10;0.90;;;16.40;93.30;;;;;;5009937;28;20416;-38
2022/07/28 07:12:53;;;;;;;2.50;0.50;;;16.40;93.40;;;;;;5006671;28;20046;-39
2022/07/28 07:15:18;;;;;;;2.72;0.60;;;16.60;93.30;;;;;;5000422;28;20034;-38
2022/07/28 07:17:44;;;;;;;2.00;0.60;;;16.70;92.90;;;;;;5009578;28;20141;-40
2022/07/28 07:20:12;;;;;;;0.80;0.40;;;16.80;92.50;;;;;;5010359;28;20053;-39
2022/07/28 07:22:42;;;;;;;3.45;0.75;;;16.90;92.40;;;;;;5008087;28;20041;-38
2022/07/28 07:25:09;;;;;;;2.97;0.60;;;17.00;92.20;;;;;;5010219;28;20487;-38
2022/07/28 07:27:34;;;;;;;5.13;0.60;;;17.00;92.00;;;;;;5009654;28;20053;-38
2022/07/28 07:30:00;;;;;;;2.10;0.60;;;17.10;92.10;;;;;;5010270;28;20427;-40
2022/07/28 07:32:26;;;;;;;3.75;1.05;;;17.20;91.90;;;;;;5004552;28;20042;-37
2022/07/28 07:34:52;;;;;;;1.63;0.52;;;17.30;91.70;;;;;;5004279;28;20550;-37
2022/07/28 07:37:20;;;;;;;1.58;0.60;;;17.40;91.60;;;;;;5009488;28;20113;-38
2022/07/28 07:39:45;;;;;;;4.22;0.57;;;17.50;91.60;;;;;;5009127;28;20050;-34
2022/07/28 07:42:11;;;;;;;1.63;0.40;;;17.60;91.10;;;;;;5009950;28;20048;-38
2022/07/28 07:44:36;;;;;;;2.72;0.55;;;17.70;90.50;;;;;;5008907;28;20109;-37
2022/07/28 07:47:02;;;;;;;2.20;0.50;;;17.80;90.20;;;;;;5010051;28;20057;-38
2022/07/28 07:49:28;;;;;;;3.55;0.40;;;17.90;89.90;;;;;;4999631;28;20379;-37
2022/07/28 07:51:54;;;;;;;2.85;0.60;;;18.00;88.90;;;;;;5009354;28;20045;-38
2022/07/28 07:54:20;;;;;;;1.45;0.40;;;18.00;87.70;;;;;;5009963;28;20034;-38
2022/07/28 07:56:46;;;;;;;3.17;0.50;;;18.10;87.70;;;;;;5009617;28;20041;-37
2022/07/28 07:59:12;;;;;;;4.15;0.65;;;18.10;87.40;;;;;;5010061;28;20329;-38
2022/07/28 08:01:37;;;;;;;3.47;0.47;;;18.20;86.60;;;;;;5009812;28;20038;-44
2022/07/28 08:04:03;;;;;;;1.23;0.40;;;18.30;85.90;;;;;;5010154;28;20041;-38
2022/07/28 08:06:29;;;;;;;1.33;0.38;;;18.40;85.70;;;;;;5001594;28;20466;-37
2022/07/28 08:08:55;;;;;;;1.42;0.50;;;18.50;84.70;;;;;;5010095;28;20436;-38
2022/07/28 08:11:20;;;;;;;1.38;0.40;;;18.50;83.80;;;;;;5009412;28;20046;-38
2022/07/28 08:13:46;;;;;;;1.23;0.40;;;18.60;83.30;;;;;;5009787;28;20520;-37
2022/07/28 08:16:12;;;;;;;1.23;0.35;;;18.70;82.70;;;;;;5008245;28;20053;-38
2022/07/28 08:18:37;;;;;;;1.65;0.40;;;18.70;82.00;;;;;;5010100;28;20070;-38
2022/07/28 08:21:03;;;;;;;1.13;0.30;;;18.90;81.70;;;;;;5009100;28;20080;-38
2022/07/28 08:23:29;;;;;;;2.47;0.47;;;19.10;81.70;;;;;;5011447;28;20133;-40
2022/07/28 08:25:54;;;;;;;1.00;0.40;;;19.20;80.90;;;;;;5012969;28;20076;-37
2022/07/28 08:28:20;;;;;;;2.72;0.38;;;19.30;78.80;;;;;;5013620;28;20387;-38
2022/07/28 08:30:46;;;;;;;0.93;0.22;;;19.40;77.30;;;;;;5013384;28;20084;-38
2022/07/28 08:33:11;;;;;;;1.88;0.40;;;19.50;77.00;;;;;;5005245;28;20033;-38
2022/07/28 08:35:37;;;;;;;1.80;0.45;;;19.70;76.20;;;;;;5013287;28;20045;-37
2022/07/28 08:38:04;;;;;;;4.55;0.38;;;19.80;72.70;;;;;;5012830;28;20498;-37
2022/07/28 08:40:33;;;;;;;1.98;0.50;;;19.90;69.30;;;;;;5002979;28;20034;-38
2022/07/28 08:43:02;;;;;;;2.00;0.50;;;19.90;68.30;;;;;;5013027;28;20513;-38
2022/07/28 08:45:30;;;;;;;1.45;0.40;;;19.90;66.40;;;;;;5012896;28;20070;-38
2022/07/28 08:47:58;;;;;;;0.60;0.20;;;19.90;67.30;;;;;;5013198;28;20125;-38
2022/07/28 08:50:24;;;;;;;2.15;0.40;;;20.00;67.50;;;;;;5009951;28;20053;-38
2022/07/28 08:52:53;;;;;;;1.25;0.30;;;20.00;65.90;;;;;;5011439;28;20435;-38
2022/07/28 08:55:24;;;;;;;1.20;0.30;;;19.90;61.50;;;;;;5010123;28;20053;-38
2022/07/28 08:57:53;;;;;;;1.67;0.30;;;19.90;64.60;;;;;;5009202;28;20042;-38
2022/07/28 09:00:21;;;;;;;1.40;0.38;;;19.80;64.30;;;;;;5012539;28;20053;-40
2022/07/28 09:02:49;;;;;;;1.60;0.47;;;19.80;65.50;;;;;;5006851;28;20124;-40
2022/07/28 09:05:15;;;;;;;3.40;0.30;;;19.90;65.00;;;;;;5012916;28;20510;-38
2022/07/28 09:07:41;;;;;;;3.78;0.40;;;19.90;63.90;;;;;;5012261;28;20038;-40
2022/07/28 09:10:08;;;;;;;1.35;0.40;;;19.90;62.60;;;;;;5012683;28;20060;-36
2022/07/28 09:12:34;;;;;;;3.38;0.45;;;20.00;62.90;;;;;;5011434;28;20052;-38
2022/07/28 09:15:04;;;;;;;1.83;0.30;;;20.10;62.30;;;;;;5002603;28;20053;-38
2022/07/28 09:17:31;;;;;;;1.85;0.30;;;20.30;62.10;;;;;;5010858;28;20171;-38
2022/07/28 09:19:57;;;;;;;1.60;0.30;;;20.50;60.90;;;;;;5012602;28;20061;-38
2022/07/28 09:22:23;;;;;;;2.25;0.50;;;20.70;58.30;;;;;;5012219;28;20396;-38
2022/07/28 09:24:49;;;;;;;0.82;0.30;;;20.90;55.60;;;;;;5012382;28;20036;-38
2022/07/28 09:27:14;;;;;;;1.20;0.30;;;21.20;55.80;;;;;;5012256;28;20409;-38
2022/07/28 09:29:48;;;;;;;1.77;0.40;;;21.20;52.10;;;;;;5007107;28;20352;-38
2022/07/28 09:32:17;;;;;;;2.03;0.55;;;21.20;52.80;;;;;;5001736;28;20038;-38
2022/07/28 09:34:46;;;;;;;2.00;0.40;;;21.00;52.50;;;;;;5012173;28;20056;-39
2022/07/28 09:37:24;;;;;;;2.35;0.40;;;20.90;52.90;;;;;;5011795;28;20073;-38
2022/07/28 09:39:52;;;;;;;1.08;0.30;;;20.90;52.70;;;;;;5012091;28;20041;-38
2022/07/28 09:42:18;;;;;;;0.93;0.40;;;21.00;55.00;;;;;;5011819;28;20183;-38
2022/07/28 09:44:44;;;;;;;1.02;0.40;;;21.10;53.20;;;;;;5008724;28;20158;-38
2022/07/28 09:47:21;;;;;;;2.55;0.40;;;21.20;52.60;;;;;;5010160;28;20044;-38
2022/07/28 09:49:47;;;;;;;2.97;0.40;;;21.30;52.50;;;;;;5011680;28;20034;-38
2022/07/28 09:52:13;;;;;;;2.17;0.40;;;21.40;52.40;;;;;;5004275;28;20068;-38
2022/07/28 09:54:42;;;;;;;2.03;0.50;;;21.60;51.50;;;;;;5011824;28;20407;-38
2022/07/28 09:57:10;;;;;;;1.25;0.40;;;21.70;50.90;;;;;;5011057;28;20050;-37
2022/07/28 09:59:41;;;;;;;1.35;0.40;;;21.70;50.60;;;;;;5011789;28;20081;-40
2022/07/28 10:02:07;;;;;;;3.05;0.50;;;21.60;50.60;;;;;;5011235;28;20235;-41
2022/07/28 10:04:39;;;;;;;1.52;0.40;;;21.50;50.70;;;;;;5007944;28;20038;-38
2022/07/28 10:07:08;;;;;;;2.83;0.43;;;21.40;50.10;;;;;;5011179;28;20038;-40
2022/07/28 10:09:35;;;;;;;0.90;0.30;;;21.30;50.20;;;;;;5011511;28;20096;-38
2022/07/28 10:12:14;;;;;;;2.60;0.40;;;21.20;51.00;;;;;;5011366;28;20041;-39
2022/07/28 10:14:39;;;;;;;1.30;0.30;;;21.20;50.10;;;;;;5000143;28;20487;-38
2022/07/28 10:17:06;;;;;;;1.33;0.32;;;21.30;50.30;;;;;;5009552;28;20092;-44
2022/07/28 10:19:31;;;;;;;1.58;0.40;;;21.50;50.50;;;;;;5005452;28;20042;-38
2022/07/28 10:21:59;;;;;;;2.00;0.30;;;21.80;49.30;;;;;;5005891;28;20462;-38
2022/07/28 10:24:27;;;;;;;1.52;0.25;;;22.00;48.40;;;;;;5026400;28;20037;-39
2022/07/28 10:26:56;;;;;;;2.25;0.35;;;22.20;48.10;;;;;;5010894;28;20077;-38
2022/07/28 10:29:23;;;;;;;1.17;0.35;;;22.30;47.30;;;;;;5009740;28;20050;-38
2022/07/28 10:31:56;;;;;;;4.35;0.60;;;22.20;47.00;;;;;;5011170;28;20111;-38
2022/07/28 10:34:27;;;;;;;1.20;0.30;;;22.10;47.30;;;;;;5011146;28;20074;-39
2022/07/28 10:36:58;;;;;;;2.30;0.40;;;21.90;47.60;;;;;;5010508;28;20072;-37
2022/07/28 10:39:27;;;;;;;2.10;0.28;;;21.90;47.80;;;;;;5005711;28;20065;-37
2022/07/28 10:41:55;;;;;;;1.30;0.40;;;21.80;48.00;;;;;;5009208;28;20352;-38
2022/07/28 10:44:21;;;;;;;2.90;0.50;;;22.00;48.00;;;;;;5010283;28;20069;-40
2022/07/28 10:46:48;;;;;;;1.55;0.50;;;22.10;47.40;;;;;;5009296;28;20049;-38
2022/07/28 10:49:14;;;;;;;1.02;0.40;;;22.10;47.40;;;;;;5011193;28;20454;-37
2022/07/28 10:51:43;;;;;;;1.35;0.30;;;22.20;47.30;;;;;;5010533;28;20038;-37
2022/07/28 10:54:26;;;;;;;1.13;0.30;;;22.20;46.70;;;;;;5007284;28;20249;-38
2022/07/28 10:56:53;;;;;;;;;;;22.20;46.40;;;;;;5005513;28;20042;-37
2022/07/28 10:59:43;;;;;;;1.30;0.57;;;22.30;47.30;;;;;;5010850;28;20192;-38
2022/07/28 11:02:42;;;;;;;1.10;0.40;;;22.50;47.10;;;;;;5010507;28;20072;-38
2022/07/28 11:05:26;;;;;;;1.95;0.45;;;22.70;46.30;;;;;;5002077;28;20038;-38
2022/07/28 11:07:52;;;;;;;1.08;0.30;;;22.80;45.60;;;;;;5008470;28;20038;-38
2022/07/28 11:10:19;;;;;;;1.85;0.40;;;22.90;45.80;;;;;;4999247;28;20047;-36
2022/07/28 11:12:49;;;;;;;2.08;0.45;;;23.10;45.90;;;;;;5007158;28;20044;-38
2022/07/28 11:15:44;;;;;;;0.77;0.40;;;23.30;45.70;;;;;;4991542;28;20117;-38
2022/07/28 11:18:10;;;;;;;1.02;0.30;;;23.50;44.00;;;;;;4998326;28;20057;-38
2022/07/28 11:20:57;;;;;;;1.08;0.40;;;23.50;44.20;;;;;;5010193;28;20384;-37
2022/07/28 11:23:42;;;;;;;2.80;0.60;;;23.50;43.00;;;;;;5010554;28;20057;-38
2022/07/28 11:26:23;;;;;;;1.40;0.60;;;23.60;43.50;;;;;;5009765;28;20046;-38
2022/07/28 11:29:07;;;;;;;3.80;0.57;;;23.60;43.40;;;;;;5000779;28;20099;-37
2022/07/28 11:31:47;;;;;;;1.85;0.40;;;23.70;43.50;;;;;;5010239;28;20058;-38
2022/07/28 11:34:22;;;;;;;2.17;0.43;;;23.80;42.90;;;;;;5010310;28;20045;-38
2022/07/28 11:37:03;;;;;;;1.38;0.30;;;23.90;43.00;;;;;;5009848;28;20054;-38
2022/07/28 11:39:31;;;;;;;2.78;0.30;;;24.00;41.70;;;;;;5009026;28;20046;-37
2022/07/28 11:41:58;;;;;;;2.35;0.40;;;24.00;42.40;;;;;;5009698;28;20103;-38
2022/07/28 11:44:29;;;;;;;3.70;0.50;;;24.00;42.00;;;;;;5010314;28;20510;-37
2022/07/28 11:47:18;;;;;;;2.55;0.82;;;23.90;41.90;;;;;;5008423;28;20516;-38
2022/07/28 11:50:13;;;;;;;1.65;0.52;;;24.00;41.20;;;;;;5010240;28;20038;-38
2022/07/28 11:52:50;;;;;;;0.57;0.30;;;24.10;42.30;;;;;;5001285;28;20527;-37
2022/07/28 11:55:17;;;;;;;1.08;0.40;;;24.20;41.40;;;;;;5009944;28;20037;-38
2022/07/28 11:57:44;;;;;;;2.00;0.38;;;24.20;41.20;;;;;;5013529;28;20054;-38
2022/07/28 12:00:10;;;;;;;0.88;0.40;;;24.50;41.60;;;;;;5014048;28;20526;-37
2022/07/28 12:02:39;;;;;;;2.25;0.40;;;24.80;40.80;;;;;;5003281;28;20037;-38
2022/07/28 12:05:09;;;;;;;1.48;0.50;;;25.20;40.50;;;;;;5012579;28;20038;-38
2022/07/28 12:07:49;;;;;;;1.27;0.40;;;25.50;39.90;;;;;;5013411;28;20112;-38
2022/07/28 12:10:26;;;;;;;3.33;0.40;;;25.70;39.40;;;;;;5013706;28;20042;-38
2022/07/28 12:12:53;;;;;;;1.38;0.32;;;25.50;38.20;;;;;;5013305;28;20514;-38
2022/07/28 12:15:20;;;;;;;2.67;0.40;;;25.30;38.50;;;;;;5013989;28;20041;-38
2022/07/28 12:17:47;;;;;;;2.28;0.30;;;25.30;38.10;;;;;;5013033;28;20050;-38
2022/07/28 12:20:15;;;;;;;1.92;0.30;;;25.20;37.90;;;;;;5009615;28;20053;-38
2022/07/28 12:22:53;;;;;;;0.93;0.30;;;25.20;38.30;;;;;;5012879;28;20046;-38
2022/07/28 12:25:19;;;;;;;2.50;0.50;;;25.20;38.40;;;;;;5013678;28;20069;-38
2022/07/28 12:27:44;;;;;;;2.05;0.40;;;25.30;38.90;;;;;;5012908;28;20034;-38
2022/07/28 12:30:11;;;;;;;1.00;0.30;;;25.50;38.80;;;;;;5013559;28;20527;-38
2022/07/28 12:32:37;;;;;;;1.42;0.70;;;25.60;38.20;;;;;;5012055;28;20058;-38
2022/07/28 12:35:03;;;;;;;1.60;0.32;;;25.70;37.50;;;;;;5008530;28;20043;-40
2022/07/28 12:37:29;;;;;;;1.80;0.40;;;25.70;37.50;;;;;;5011443;28;20521;-38
2022/07/28 12:39:56;;;;;;;2.08;0.60;;;25.70;37.20;;;;;;5003934;28;20041;-38
2022/07/28 12:42:23;;;;;;;3.85;0.60;;;25.70;37.40;;;;;;5013066;28;20471;-39
2022/07/28 12:44:52;;;;;;;0.85;0.32;;;25.70;37.40;;;;;;5013213;28;20474;-38
2022/07/28 12:47:25;;;;;;;1.23;0.40;;;25.60;37.50;;;;;;5011874;28;20456;-38
2022/07/28 12:50:16;;;;;;;0.88;0.40;;;25.70;37.30;;;;;;5007666;28;20038;-38
2022/07/28 12:52:59;;;;;;;2.70;0.55;;;25.90;36.60;;;;;;5006516;28;20497;-38
2022/07/28 12:55:25;;;;;;;1.67;0.50;;;25.80;36.90;;;;;;5012825;28;20126;-38
2022/07/28 12:57:52;;;;;;;1.52;0.50;;;25.70;37.20;;;;;;5012424;28;20529;-38